sensor_id;sensor_type;location;lat;lon;timestamp;pressure;altitude;pressure_sealevel;temperature
65569;BMP180;52211;50.154;8.682;2023-09-30T00:00:12;100859.00;;;22.60
65569;BMP180;52211;50.154;8.682;2023-09-30T00:02:42;100863.00;;;22.60
65569;BMP180;52211;50.154;8.682;2023-09-30T00:05:11;100872.00;;;22.60
65569;BMP180;52211;50.154;8.682;2023-09-30T00:07:39;100879.00;;;22.50
65569;BMP180;52211;50.154;8.682;2023-09-30T00:10:06;100888.00;;;22.50
65569;BMP180;52211;50.154;8.682;2023-09-30T00:12:33;100891.00;;;22.50
65569;BMP180;52211;50.154;8.682;2023-09-30T00:15:00;100891.00;;;22.50
65569;BMP180;52211;50.154;8.682;2023-09-30T00:17:27;100897.00;;;22.40
65569;BMP180;52211;50.154;8.682;2023-09-30T00:19:54;100899.00;;;22.40
65569;BMP180;52211;50.154;8.682;2023-09-30T00:22:24;100900.00;;;22.40
65569;BMP180;52211;50.154;8.682;2023-09-30T00:24:53;100896.00;;;22.40
65569;BMP180;52211;50.154;8.682;2023-09-30T00:27:26;100896.00;;;22.40
65569;BMP180;52211;50.154;8.682;2023-09-30T00:29:54;100899.00;;;22.40
65569;BMP180;52211;50.154;8.682;2023-09-30T00:32:23;100905.00;;;22.40
65569;BMP180;52211;50.154;8.682;2023-09-30T00:34:58;100904.00;;;22.30
65569;BMP180;52211;50.154;8.682;2023-09-30T00:37:27;100909.00;;;22.30
65569;BMP180;52211;50.154;8.682;2023-09-30T00:39:54;100912.00;;;22.30
65569;BMP180;52211;50.154;8.682;2023-09-30T00:42:22;100920.00;;;22.30
65569;BMP180;52211;50.154;8.682;2023-09-30T00:44:51;100922.00;;;22.30
65569;BMP180;52211;50.154;8.682;2023-09-30T00:47:21;100920.00;;;22.30
65569;BMP180;52211;50.154;8.682;2023-09-30T00:49:53;100922.00;;;22.30
65569;BMP180;52211;50.154;8.682;2023-09-30T00:52:22;100927.00;;;22.30
65569;BMP180;52211;50.154;8.682;2023-09-30T00:54:54;100919.00;;;22.20
65569;BMP180;52211;50.154;8.682;2023-09-30T00:57:25;100906.00;;;22.20
65569;BMP180;52211;50.154;8.682;2023-09-30T00:59:54;100917.00;;;22.20
65569;BMP180;52211;50.154;8.682;2023-09-30T01:02:22;100920.00;;;22.20
65569;BMP180;52211;50.154;8.682;2023-09-30T01:04:50;100923.00;;;22.10
65569;BMP180;52211;50.154;8.682;2023-09-30T01:07:17;100928.00;;;22.20
65569;BMP180;52211;50.154;8.682;2023-09-30T01:09:45;100924.00;;;22.10
65569;BMP180;52211;50.154;8.682;2023-09-30T01:12:13;100927.00;;;22.10
65569;BMP180;52211;50.154;8.682;2023-09-30T01:14:42;100926.00;;;22.10
65569;BMP180;52211;50.154;8.682;2023-09-30T01:17:10;100939.00;;;22.10
65569;BMP180;52211;50.154;8.682;2023-09-30T01:19:41;100939.00;;;22.00
65569;BMP180;52211;50.154;8.682;2023-09-30T01:22:12;100938.00;;;22.00
65569;BMP180;52211;50.154;8.682;2023-09-30T01:24:40;100955.00;;;22.00
65569;BMP180;52211;50.154;8.682;2023-09-30T01:27:10;100953.00;;;22.00
65569;BMP180;52211;50.154;8.682;2023-09-30T01:29:37;100951.00;;;21.90
65569;BMP180;52211;50.154;8.682;2023-09-30T01:32:05;100947.00;;;21.90
65569;BMP180;52211;50.154;8.682;2023-09-30T01:34:37;100950.00;;;21.90
65569;BMP180;52211;50.154;8.682;2023-09-30T01:37:09;100935.00;;;21.80
65569;BMP180;52211;50.154;8.682;2023-09-30T01:39:39;100939.00;;;21.80
65569;BMP180;52211;50.154;8.682;2023-09-30T01:42:11;100941.00;;;21.80
65569;BMP180;52211;50.154;8.682;2023-09-30T01:44:41;100940.00;;;21.80
65569;BMP180;52211;50.154;8.682;2023-09-30T01:47:13;100940.00;;;21.80
65569;BMP180;52211;50.154;8.682;2023-09-30T01:49:39;100937.00;;;21.80
65569;BMP180;52211;50.154;8.682;2023-09-30T01:52:09;100931.00;;;21.80
65569;BMP180;52211;50.154;8.682;2023-09-30T01:54:38;100937.00;;;21.80
65569;BMP180;52211;50.154;8.682;2023-09-30T01:57:05;100937.00;;;21.80
65569;BMP180;52211;50.154;8.682;2023-09-30T01:59:34;100925.00;;;21.80
65569;BMP180;52211;50.154;8.682;2023-09-30T02:02:06;100929.00;;;21.80
65569;BMP180;52211;50.154;8.682;2023-09-30T02:04:33;100923.00;;;21.80
65569;BMP180;52211;50.154;8.682;2023-09-30T02:06:59;100922.00;;;21.70
65569;BMP180;52211;50.154;8.682;2023-09-30T02:09:26;100918.00;;;21.70
65569;BMP180;52211;50.154;8.682;2023-09-30T02:11:56;100928.00;;;21.70
65569;BMP180;52211;50.154;8.682;2023-09-30T02:14:27;100943.00;;;21.70
65569;BMP180;52211;50.154;8.682;2023-09-30T02:16:56;100946.00;;;21.60
65569;BMP180;52211;50.154;8.682;2023-09-30T02:19:24;100949.00;;;21.60
65569;BMP180;52211;50.154;8.682;2023-09-30T02:21:56;100951.00;;;21.60
65569;BMP180;52211;50.154;8.682;2023-09-30T02:24:23;100954.00;;;21.60
65569;BMP180;52211;50.154;8.682;2023-09-30T02:26:51;100960.00;;;21.50
65569;BMP180;52211;50.154;8.682;2023-09-30T02:29:20;100965.00;;;21.50
65569;BMP180;52211;50.154;8.682;2023-09-30T02:31:49;100958.00;;;21.50
65569;BMP180;52211;50.154;8.682;2023-09-30T02:34:21;100957.00;;;21.50
65569;BMP180;52211;50.154;8.682;2023-09-30T02:36:53;100955.00;;;21.40
65569;BMP180;52211;50.154;8.682;2023-09-30T02:39:24;100943.00;;;21.40
65569;BMP180;52211;50.154;8.682;2023-09-30T02:41:55;100956.00;;;21.40
65569;BMP180;52211;50.154;8.682;2023-09-30T02:44:28;100942.00;;;21.40
65569;BMP180;52211;50.154;8.682;2023-09-30T02:46:59;100942.00;;;21.30
65569;BMP180;52211;50.154;8.682;2023-09-30T02:49:30;100942.00;;;21.30
65569;BMP180;52211;50.154;8.682;2023-09-30T02:51:58;100947.00;;;21.30
65569;BMP180;52211;50.154;8.682;2023-09-30T02:54:33;100959.00;;;21.30
65569;BMP180;52211;50.154;8.682;2023-09-30T02:57:02;100974.00;;;21.20
65569;BMP180;52211;50.154;8.682;2023-09-30T02:59:33;100978.00;;;21.20
65569;BMP180;52211;50.154;8.682;2023-09-30T03:02:05;100975.00;;;21.20
65569;BMP180;52211;50.154;8.682;2023-09-30T03:04:37;100979.00;;;21.10
65569;BMP180;52211;50.154;8.682;2023-09-30T03:07:12;100987.00;;;21.10
65569;BMP180;52211;50.154;8.682;2023-09-30T03:09:40;100975.00;;;21.10
65569;BMP180;52211;50.154;8.682;2023-09-30T03:12:07;100970.00;;;21.10
65569;BMP180;52211;50.154;8.682;2023-09-30T03:14:39;100968.00;;;21.00
65569;BMP180;52211;50.154;8.682;2023-09-30T03:17:06;100970.00;;;21.00
65569;BMP180;52211;50.154;8.682;2023-09-30T03:19:38;100972.00;;;21.00
65569;BMP180;52211;50.154;8.682;2023-09-30T03:22:05;100959.00;;;21.00
65569;BMP180;52211;50.154;8.682;2023-09-30T03:24:40;100959.00;;;21.00
65569;BMP180;52211;50.154;8.682;2023-09-30T03:27:12;100968.00;;;21.00
65569;BMP180;52211;50.154;8.682;2023-09-30T03:29:41;100974.00;;;21.00
65569;BMP180;52211;50.154;8.682;2023-09-30T03:32:13;100957.00;;;20.90
65569;BMP180;52211;50.154;8.682;2023-09-30T03:34:41;100952.00;;;20.90
65569;BMP180;52211;50.154;8.682;2023-09-30T03:37:15;100977.00;;;20.90
65569;BMP180;52211;50.154;8.682;2023-09-30T03:39:49;100978.00;;;20.80
65569;BMP180;52211;50.154;8.682;2023-09-30T03:42:16;100988.00;;;20.80
65569;BMP180;52211;50.154;8.682;2023-09-30T03:44:47;100992.00;;;20.80
65569;BMP180;52211;50.154;8.682;2023-09-30T03:47:19;100991.00;;;20.80
65569;BMP180;52211;50.154;8.682;2023-09-30T03:49:46;100990.00;;;20.70
65569;BMP180;52211;50.154;8.682;2023-09-30T03:52:17;100998.00;;;20.70
65569;BMP180;52211;50.154;8.682;2023-09-30T03:54:52;101001.00;;;20.70
65569;BMP180;52211;50.154;8.682;2023-09-30T03:57:22;101000.00;;;20.70
65569;BMP180;52211;50.154;8.682;2023-09-30T03:59:49;101006.00;;;20.70
65569;BMP180;52211;50.154;8.682;2023-09-30T04:02:18;101009.00;;;20.70
65569;BMP180;52211;50.154;8.682;2023-09-30T04:04:48;101009.00;;;20.70
65569;BMP180;52211;50.154;8.682;2023-09-30T04:07:19;101003.00;;;20.60
65569;BMP180;52211;50.154;8.682;2023-09-30T04:09:50;100994.00;;;20.60
65569;BMP180;52211;50.154;8.682;2023-09-30T04:12:19;100981.00;;;20.60
65569;BMP180;52211;50.154;8.682;2023-09-30T04:14:46;100992.00;;;20.60
65569;BMP180;52211;50.154;8.682;2023-09-30T04:17:19;100989.00;;;20.60
65569;BMP180;52211;50.154;8.682;2023-09-30T04:19:52;100993.00;;;20.60
65569;BMP180;52211;50.154;8.682;2023-09-30T04:22:19;101004.00;;;20.50
65569;BMP180;52211;50.154;8.682;2023-09-30T04:24:47;101001.00;;;20.50
65569;BMP180;52211;50.154;8.682;2023-09-30T04:27:20;101016.00;;;20.50
65569;BMP180;52211;50.154;8.682;2023-09-30T04:29:48;101009.00;;;20.50
65569;BMP180;52211;50.154;8.682;2023-09-30T04:32:18;101011.00;;;20.50
65569;BMP180;52211;50.154;8.682;2023-09-30T04:34:46;101021.00;;;20.50
65569;BMP180;52211;50.154;8.682;2023-09-30T04:37:13;101015.00;;;20.50
65569;BMP180;52211;50.154;8.682;2023-09-30T04:39:43;101027.00;;;20.50
65569;BMP180;52211;50.154;8.682;2023-09-30T04:42:12;101018.00;;;20.50
65569;BMP180;52211;50.154;8.682;2023-09-30T04:44:39;101015.00;;;20.50
65569;BMP180;52211;50.154;8.682;2023-09-30T04:47:09;101023.00;;;20.50
65569;BMP180;52211;50.154;8.682;2023-09-30T04:49:40;101022.00;;;20.50
65569;BMP180;52211;50.154;8.682;2023-09-30T04:52:07;101019.00;;;20.50
65569;BMP180;52211;50.154;8.682;2023-09-30T04:54:37;101022.00;;;20.50
65569;BMP180;52211;50.154;8.682;2023-09-30T04:57:11;101019.00;;;20.40
65569;BMP180;52211;50.154;8.682;2023-09-30T04:59:40;101021.00;;;20.40
65569;BMP180;52211;50.154;8.682;2023-09-30T05:02:09;101022.00;;;20.40
65569;BMP180;52211;50.154;8.682;2023-09-30T05:04:42;101021.00;;;20.40
65569;BMP180;52211;50.154;8.682;2023-09-30T05:07:11;101018.00;;;20.40
65569;BMP180;52211;50.154;8.682;2023-09-30T05:09:40;101024.00;;;20.40
65569;BMP180;52211;50.154;8.682;2023-09-30T05:12:10;101013.00;;;20.40
65569;BMP180;52211;50.154;8.682;2023-09-30T05:14:40;101019.00;;;20.40
65569;BMP180;52211;50.154;8.682;2023-09-30T05:17:09;101026.00;;;20.40
65569;BMP180;52211;50.154;8.682;2023-09-30T05:19:40;101030.00;;;20.50
65569;BMP180;52211;50.154;8.682;2023-09-30T05:22:09;101031.00;;;20.50
65569;BMP180;52211;50.154;8.682;2023-09-30T05:24:36;101026.00;;;20.50
65569;BMP180;52211;50.154;8.682;2023-09-30T05:27:03;101015.00;;;20.50
65569;BMP180;52211;50.154;8.682;2023-09-30T05:29:35;101023.00;;;20.50
65569;BMP180;52211;50.154;8.682;2023-09-30T05:32:02;101020.00;;;20.50
65569;BMP180;52211;50.154;8.682;2023-09-30T05:34:33;101024.00;;;20.60
65569;BMP180;52211;50.154;8.682;2023-09-30T05:37:02;101027.00;;;20.50
65569;BMP180;52211;50.154;8.682;2023-09-30T05:39:29;101033.00;;;20.60
65569;BMP180;52211;50.154;8.682;2023-09-30T05:41:59;101035.00;;;20.60
65569;BMP180;52211;50.154;8.682;2023-09-30T05:44:28;101039.00;;;20.50
65569;BMP180;52211;50.154;8.682;2023-09-30T05:47:01;101046.00;;;20.60
65569;BMP180;52211;50.154;8.682;2023-09-30T05:49:28;101042.00;;;20.50
65569;BMP180;52211;50.154;8.682;2023-09-30T05:51:59;101037.00;;;20.50
65569;BMP180;52211;50.154;8.682;2023-09-30T05:54:26;101033.00;;;20.50
65569;BMP180;52211;50.154;8.682;2023-09-30T05:56:53;101041.00;;;20.50
65569;BMP180;52211;50.154;8.682;2023-09-30T05:59:20;101041.00;;;20.50
65569;BMP180;52211;50.154;8.682;2023-09-30T06:01:52;101046.00;;;20.50
65569;BMP180;52211;50.154;8.682;2023-09-30T06:04:24;101045.00;;;20.40
65569;BMP180;52211;50.154;8.682;2023-09-30T06:06:53;101045.00;;;20.40
65569;BMP180;52211;50.154;8.682;2023-09-30T06:09:22;101046.00;;;20.40
65569;BMP180;52211;50.154;8.682;2023-09-30T06:11:51;101050.00;;;20.40
65569;BMP180;52211;50.154;8.682;2023-09-30T06:14:18;101055.00;;;20.30
65569;BMP180;52211;50.154;8.682;2023-09-30T06:16:45;101049.00;;;20.30
65569;BMP180;52211;50.154;8.682;2023-09-30T06:19:14;101057.00;;;20.30
65569;BMP180;52211;50.154;8.682;2023-09-30T06:21:44;101062.00;;;20.30
65569;BMP180;52211;50.154;8.682;2023-09-30T06:24:14;101065.00;;;20.30
65569;BMP180;52211;50.154;8.682;2023-09-30T06:26:41;101054.00;;;20.30
65569;BMP180;52211;50.154;8.682;2023-09-30T06:29:10;101070.00;;;20.30
65569;BMP180;52211;50.154;8.682;2023-09-30T06:31:42;101075.00;;;20.30
65569;BMP180;52211;50.154;8.682;2023-09-30T06:34:09;101070.00;;;20.30
65569;BMP180;52211;50.154;8.682;2023-09-30T06:36:37;101067.00;;;20.30
65569;BMP180;52211;50.154;8.682;2023-09-30T06:39:04;101062.00;;;20.30
65569;BMP180;52211;50.154;8.682;2023-09-30T06:41:32;101061.00;;;20.30
65569;BMP180;52211;50.154;8.682;2023-09-30T06:44:03;101079.00;;;20.30
65569;BMP180;52211;50.154;8.682;2023-09-30T06:46:30;101084.00;;;20.30
65569;BMP180;52211;50.154;8.682;2023-09-30T06:49:03;101085.00;;;20.30
65569;BMP180;52211;50.154;8.682;2023-09-30T06:51:31;101092.00;;;20.30
65569;BMP180;52211;50.154;8.682;2023-09-30T06:54:06;101089.00;;;20.30
65569;BMP180;52211;50.154;8.682;2023-09-30T06:56:36;101103.00;;;20.30
65569;BMP180;52211;50.154;8.682;2023-09-30T06:59:05;101101.00;;;20.30
65569;BMP180;52211;50.154;8.682;2023-09-30T07:01:38;101085.00;;;20.30
65569;BMP180;52211;50.154;8.682;2023-09-30T07:04:06;101095.00;;;20.30
65569;BMP180;52211;50.154;8.682;2023-09-30T07:06:37;101094.00;;;20.30
65569;BMP180;52211;50.154;8.682;2023-09-30T07:09:04;101102.00;;;20.30
65569;BMP180;52211;50.154;8.682;2023-09-30T07:11:31;101100.00;;;20.30
65569;BMP180;52211;50.154;8.682;2023-09-30T07:14:03;101092.00;;;20.30
65569;BMP180;52211;50.154;8.682;2023-09-30T07:16:38;101096.00;;;20.40
65569;BMP180;52211;50.154;8.682;2023-09-30T07:19:10;101100.00;;;20.40
65569;BMP180;52211;50.154;8.682;2023-09-30T07:21:39;101104.00;;;20.40
65569;BMP180;52211;50.154;8.682;2023-09-30T07:24:13;101107.00;;;20.40
65569;BMP180;52211;50.154;8.682;2023-09-30T07:26:42;101107.00;;;20.40
65569;BMP180;52211;50.154;8.682;2023-09-30T07:29:09;101104.00;;;20.40
65569;BMP180;52211;50.154;8.682;2023-09-30T07:31:37;101110.00;;;20.50
65569;BMP180;52211;50.154;8.682;2023-09-30T07:34:06;101114.00;;;20.50
65569;BMP180;52211;50.154;8.682;2023-09-30T07:36:33;101114.00;;;20.50
65569;BMP180;52211;50.154;8.682;2023-09-30T07:39:03;101123.00;;;20.50
65569;BMP180;52211;50.154;8.682;2023-09-30T07:41:37;101124.00;;;20.50
65569;BMP180;52211;50.154;8.682;2023-09-30T07:44:09;101111.00;;;20.50
65569;BMP180;52211;50.154;8.682;2023-09-30T07:46:41;101109.00;;;20.50
65569;BMP180;52211;50.154;8.682;2023-09-30T07:49:10;101107.00;;;20.60
65569;BMP180;52211;50.154;8.682;2023-09-30T07:51:41;101100.00;;;20.60
65569;BMP180;52211;50.154;8.682;2023-09-30T07:54:08;101102.00;;;20.60
65569;BMP180;52211;50.154;8.682;2023-09-30T07:56:58;101105.00;;;20.70
65569;BMP180;52211;50.154;8.682;2023-09-30T07:59:29;101101.00;;;20.70
65569;BMP180;52211;50.154;8.682;2023-09-30T08:02:01;101100.00;;;20.70
65569;BMP180;52211;50.154;8.682;2023-09-30T08:04:28;101102.00;;;20.80
65569;BMP180;52211;50.154;8.682;2023-09-30T08:06:57;101112.00;;;20.80
65569;BMP180;52211;50.154;8.682;2023-09-30T08:09:26;101100.00;;;20.80
65569;BMP180;52211;50.154;8.682;2023-09-30T08:11:54;101095.00;;;20.90
65569;BMP180;52211;50.154;8.682;2023-09-30T08:14:23;101096.00;;;20.90
65569;BMP180;52211;50.154;8.682;2023-09-30T08:16:52;101110.00;;;20.90
65569;BMP180;52211;50.154;8.682;2023-09-30T08:19:19;101114.00;;;21.00
65569;BMP180;52211;50.154;8.682;2023-09-30T08:21:47;101122.00;;;21.00
65569;BMP180;52211;50.154;8.682;2023-09-30T08:24:14;101115.00;;;21.00
65569;BMP180;52211;50.154;8.682;2023-09-30T08:26:46;101113.00;;;21.10
65569;BMP180;52211;50.154;8.682;2023-09-30T08:29:13;101113.00;;;21.10
65569;BMP180;52211;50.154;8.682;2023-09-30T08:31:40;101109.00;;;21.10
65569;BMP180;52211;50.154;8.682;2023-09-30T08:34:07;101115.00;;;21.20
65569;BMP180;52211;50.154;8.682;2023-09-30T08:36:34;101121.00;;;21.20
65569;BMP180;52211;50.154;8.682;2023-09-30T08:39:02;101123.00;;;21.20
65569;BMP180;52211;50.154;8.682;2023-09-30T08:41:33;101126.00;;;21.20
65569;BMP180;52211;50.154;8.682;2023-09-30T08:44:04;101134.00;;;21.20
65569;BMP180;52211;50.154;8.682;2023-09-30T08:46:33;101141.00;;;21.20
65569;BMP180;52211;50.154;8.682;2023-09-30T08:49:06;101138.00;;;21.30
65569;BMP180;52211;50.154;8.682;2023-09-30T08:51:36;101148.00;;;21.30
65569;BMP180;52211;50.154;8.682;2023-09-30T08:54:04;101144.00;;;21.30
65569;BMP180;52211;50.154;8.682;2023-09-30T08:56:35;101151.00;;;21.40
65569;BMP180;52211;50.154;8.682;2023-09-30T08:59:03;101149.00;;;21.40
65569;BMP180;52211;50.154;8.682;2023-09-30T09:01:31;101135.00;;;21.50
65569;BMP180;52211;50.154;8.682;2023-09-30T09:03:58;101137.00;;;21.50
65569;BMP180;52211;50.154;8.682;2023-09-30T09:06:31;101143.00;;;21.50
65569;BMP180;52211;50.154;8.682;2023-09-30T09:09:20;101151.00;;;21.50
65569;BMP180;52211;50.154;8.682;2023-09-30T09:11:51;101146.00;;;21.50
65569;BMP180;52211;50.154;8.682;2023-09-30T09:14:40;101157.00;;;21.50
65569;BMP180;52211;50.154;8.682;2023-09-30T09:17:11;101157.00;;;21.50
65569;BMP180;52211;50.154;8.682;2023-09-30T09:19:38;101161.00;;;21.60
65569;BMP180;52211;50.154;8.682;2023-09-30T09:22:05;101158.00;;;21.60
65569;BMP180;52211;50.154;8.682;2023-09-30T09:24:38;101159.00;;;21.70
65569;BMP180;52211;50.154;8.682;2023-09-30T09:27:13;101154.00;;;21.70
65569;BMP180;52211;50.154;8.682;2023-09-30T09:29:43;101156.00;;;21.80
65569;BMP180;52211;50.154;8.682;2023-09-30T09:32:15;101153.00;;;21.80
65569;BMP180;52211;50.154;8.682;2023-09-30T09:34:44;101155.00;;;21.90
65569;BMP180;52211;50.154;8.682;2023-09-30T09:37:17;101159.00;;;22.00
65569;BMP180;52211;50.154;8.682;2023-09-30T09:39:57;101160.00;;;22.00
65569;BMP180;52211;50.154;8.682;2023-09-30T09:42:32;101164.00;;;22.10
65569;BMP180;52211;50.154;8.682;2023-09-30T09:45:05;101161.00;;;22.20
65569;BMP180;52211;50.154;8.682;2023-09-30T09:47:35;101164.00;;;22.20
65569;BMP180;52211;50.154;8.682;2023-09-30T09:50:05;101169.00;;;22.20
65569;BMP180;52211;50.154;8.682;2023-09-30T09:52:39;101164.00;;;22.30
65569;BMP180;52211;50.154;8.682;2023-09-30T09:55:16;101163.00;;;22.30
65569;BMP180;52211;50.154;8.682;2023-09-30T09:57:51;101165.00;;;22.40
65569;BMP180;52211;50.154;8.682;2023-09-30T10:00:24;101155.00;;;22.50
65569;BMP180;52211;50.154;8.682;2023-09-30T10:02:54;101144.00;;;22.60
65569;BMP180;52211;50.154;8.682;2023-09-30T10:05:24;101128.00;;;22.80
65569;BMP180;52211;50.154;8.682;2023-09-30T10:08:07;101126.00;;;22.90
65569;BMP180;52211;50.154;8.682;2023-09-30T10:10:36;101116.00;;;23.10
65569;BMP180;52211;50.154;8.682;2023-09-30T10:13:09;101110.00;;;23.20
65569;BMP180;52211;50.154;8.682;2023-09-30T10:16:01;101109.00;;;23.40
65569;BMP180;52211;50.154;8.682;2023-09-30T10:18:28;101104.00;;;23.50
65569;BMP180;52211;50.154;8.682;2023-09-30T10:21:08;101107.00;;;23.60
65569;BMP180;52211;50.154;8.682;2023-09-30T10:23:36;101110.00;;;23.80
65569;BMP180;52211;50.154;8.682;2023-09-30T10:26:24;101104.00;;;23.90
65569;BMP180;52211;50.154;8.682;2023-09-30T10:28:51;101101.00;;;24.00
65569;BMP180;52211;50.154;8.682;2023-09-30T10:31:23;101102.00;;;24.10
65569;BMP180;52211;50.154;8.682;2023-09-30T10:36:36;101106.00;;;24.20
65569;BMP180;52211;50.154;8.682;2023-09-30T10:39:13;101113.00;;;24.20
65569;BMP180;52211;50.154;8.682;2023-09-30T10:46:57;101104.00;;;24.40
65569;BMP180;52211;50.154;8.682;2023-09-30T10:51:56;101096.00;;;24.50
65569;BMP180;52211;50.154;8.682;2023-09-30T10:54:27;101105.00;;;24.60
65569;BMP180;52211;50.154;8.682;2023-09-30T10:56:58;101095.00;;;24.60
65569;BMP180;52211;50.154;8.682;2023-09-30T10:59:31;101095.00;;;24.70
65569;BMP180;52211;50.154;8.682;2023-09-30T11:02:21;101102.00;;;24.80
65569;BMP180;52211;50.154;8.682;2023-09-30T11:04:51;101091.00;;;24.90
65569;BMP180;52211;50.154;8.682;2023-09-30T11:07:28;101095.00;;;25.00
65569;BMP180;52211;50.154;8.682;2023-09-30T11:09:55;101104.00;;;25.10
65569;BMP180;52211;50.154;8.682;2023-09-30T11:12:22;101099.00;;;25.20
65569;BMP180;52211;50.154;8.682;2023-09-30T11:15:01;101110.00;;;25.30
65569;BMP180;52211;50.154;8.682;2023-09-30T11:17:28;101115.00;;;25.40
65569;BMP180;52211;50.154;8.682;2023-09-30T11:19:55;101116.00;;;25.50
65569;BMP180;52211;50.154;8.682;2023-09-30T11:22:25;101120.00;;;25.60
65569;BMP180;52211;50.154;8.682;2023-09-30T11:24:57;101114.00;;;25.70
65569;BMP180;52211;50.154;8.682;2023-09-30T11:27:29;101099.00;;;25.70
65569;BMP180;52211;50.154;8.682;2023-09-30T11:29:58;101092.00;;;25.80
65569;BMP180;52211;50.154;8.682;2023-09-30T11:32:30;101088.00;;;25.80
65569;BMP180;52211;50.154;8.682;2023-09-30T11:34:57;101101.00;;;25.90
65569;BMP180;52211;50.154;8.682;2023-09-30T11:37:33;101096.00;;;25.80
65569;BMP180;52211;50.154;8.682;2023-09-30T11:40:12;101099.00;;;25.90
65569;BMP180;52211;50.154;8.682;2023-09-30T11:42:40;101090.00;;;26.00
65569;BMP180;52211;50.154;8.682;2023-09-30T11:45:21;101100.00;;;26.00
65569;BMP180;52211;50.154;8.682;2023-09-30T11:47:49;101104.00;;;26.20
65569;BMP180;52211;50.154;8.682;2023-09-30T11:50:19;101093.00;;;26.30
65569;BMP180;52211;50.154;8.682;2023-09-30T11:52:50;101087.00;;;26.40
65569;BMP180;52211;50.154;8.682;2023-09-30T11:55:17;101090.00;;;26.50
65569;BMP180;52211;50.154;8.682;2023-09-30T11:57:47;101087.00;;;26.70
65569;BMP180;52211;50.154;8.682;2023-09-30T12:00:16;101090.00;;;26.80
65569;BMP180;52211;50.154;8.682;2023-09-30T12:02:47;101088.00;;;26.90
65569;BMP180;52211;50.154;8.682;2023-09-30T12:05:16;101087.00;;;27.00
65569;BMP180;52211;50.154;8.682;2023-09-30T12:07:44;101078.00;;;27.10
65569;BMP180;52211;50.154;8.682;2023-09-30T12:10:11;101078.00;;;27.30
65569;BMP180;52211;50.154;8.682;2023-09-30T12:12:41;101075.00;;;27.50
65569;BMP180;52211;50.154;8.682;2023-09-30T12:15:11;101077.00;;;27.60
65569;BMP180;52211;50.154;8.682;2023-09-30T12:17:40;101076.00;;;27.80
65569;BMP180;52211;50.154;8.682;2023-09-30T12:20:07;101073.00;;;28.00
65569;BMP180;52211;50.154;8.682;2023-09-30T12:22:35;101069.00;;;28.10
65569;BMP180;52211;50.154;8.682;2023-09-30T12:25:05;101066.00;;;28.20
65569;BMP180;52211;50.154;8.682;2023-09-30T12:27:37;101063.00;;;28.20
65569;BMP180;52211;50.154;8.682;2023-09-30T12:30:06;101055.00;;;28.30
65569;BMP180;52211;50.154;8.682;2023-09-30T12:32:33;101060.00;;;28.50
65569;BMP180;52211;50.154;8.682;2023-09-30T12:35:00;101060.00;;;28.70
65569;BMP180;52211;50.154;8.682;2023-09-30T12:37:28;101057.00;;;28.90
65569;BMP180;52211;50.154;8.682;2023-09-30T12:39:58;101051.00;;;29.00
65569;BMP180;52211;50.154;8.682;2023-09-30T12:42:25;101057.00;;;29.30
65569;BMP180;52211;50.154;8.682;2023-09-30T12:44:52;101053.00;;;29.40
65569;BMP180;52211;50.154;8.682;2023-09-30T12:47:19;101051.00;;;29.70
65569;BMP180;52211;50.154;8.682;2023-09-30T12:49:48;101054.00;;;30.00
65569;BMP180;52211;50.154;8.682;2023-09-30T12:52:17;101043.00;;;30.30
65569;BMP180;52211;50.154;8.682;2023-09-30T12:54:46;101045.00;;;30.60
65569;BMP180;52211;50.154;8.682;2023-09-30T12:57:18;101052.00;;;30.90
65569;BMP180;52211;50.154;8.682;2023-09-30T12:59:45;101049.00;;;31.20
65569;BMP180;52211;50.154;8.682;2023-09-30T13:02:16;101051.00;;;31.50
65569;BMP180;52211;50.154;8.682;2023-09-30T13:04:46;101051.00;;;31.70
65569;BMP180;52211;50.154;8.682;2023-09-30T13:07:15;101054.00;;;31.80
65569;BMP180;52211;50.154;8.682;2023-09-30T13:09:44;101057.00;;;31.80
65569;BMP180;52211;50.154;8.682;2023-09-30T13:12:14;101065.00;;;31.70
65569;BMP180;52211;50.154;8.682;2023-09-30T13:14:43;101062.00;;;31.70
65569;BMP180;52211;50.154;8.682;2023-09-30T13:17:10;101065.00;;;31.80
65569;BMP180;52211;50.154;8.682;2023-09-30T13:19:40;101052.00;;;31.90
65569;BMP180;52211;50.154;8.682;2023-09-30T13:22:08;101047.00;;;32.10
65569;BMP180;52211;50.154;8.682;2023-09-30T13:24:49;101039.00;;;32.30
65569;BMP180;52211;50.154;8.682;2023-09-30T13:27:21;101032.00;;;32.50
65569;BMP180;52211;50.154;8.682;2023-09-30T13:29:51;101025.00;;;32.70
65569;BMP180;52211;50.154;8.682;2023-09-30T13:32:20;101025.00;;;32.80
65569;BMP180;52211;50.154;8.682;2023-09-30T13:34:52;101018.00;;;32.90
65569;BMP180;52211;50.154;8.682;2023-09-30T13:37:19;101012.00;;;32.80
65569;BMP180;52211;50.154;8.682;2023-09-30T13:39:51;101014.00;;;32.60
65569;BMP180;52211;50.154;8.682;2023-09-30T13:42:19;101021.00;;;32.40
65569;BMP180;52211;50.154;8.682;2023-09-30T13:44:48;101024.00;;;32.30
65569;BMP180;52211;50.154;8.682;2023-09-30T13:47:19;101030.00;;;32.30
65569;BMP180;52211;50.154;8.682;2023-09-30T13:49:51;101030.00;;;32.30
65569;BMP180;52211;50.154;8.682;2023-09-30T13:52:18;101024.00;;;32.30
65569;BMP180;52211;50.154;8.682;2023-09-30T13:54:45;101019.00;;;32.20
65569;BMP180;52211;50.154;8.682;2023-09-30T13:57:14;101018.00;;;32.20
65569;BMP180;52211;50.154;8.682;2023-09-30T13:59:46;101015.00;;;32.10
65569;BMP180;52211;50.154;8.682;2023-09-30T14:02:17;101014.00;;;32.00
65569;BMP180;52211;50.154;8.682;2023-09-30T14:04:44;101011.00;;;31.90
65569;BMP180;52211;50.154;8.682;2023-09-30T14:07:13;101004.00;;;31.80
65569;BMP180;52211;50.154;8.682;2023-09-30T14:09:40;101008.00;;;31.70
65569;BMP180;52211;50.154;8.682;2023-09-30T14:12:11;101005.00;;;31.40
65569;BMP180;52211;50.154;8.682;2023-09-30T14:14:42;101002.00;;;31.20
65569;BMP180;52211;50.154;8.682;2023-09-30T14:17:12;101000.00;;;30.90
65569;BMP180;52211;50.154;8.682;2023-09-30T14:19:41;101000.00;;;30.80
65569;BMP180;52211;50.154;8.682;2023-09-30T14:22:08;100994.00;;;30.70